Time;durP1;ratioP1;P1;durP2;ratioP2;P2;SDS_P1;SDS_P2;PMS_P1;PMS_P2;Temp;Humidity;BMP_temperature;BMP_pressure;BME280_temperature;BME280_humidity;BME280_pressure;Samples;Min_cycle;Max_cycle;Signal;HPM_P1;HPM_P2
2023/01/19 00:01:25;;;;;;;9.02;6.13;;;;;;;;;;5039696;28;20017;-77
2023/01/19 00:03:51;;;;;;;8.88;5.80;;;;;;;;;;5031207;28;20033;-77
2023/01/19 00:06:17;;;;;;;9.25;5.50;;;;;;;;;;5039227;28;20025;-77
2023/01/19 00:08:44;;;;;;;8.43;5.88;;;;;;;;;;5038465;28;20522;-77
2023/01/19 00:11:11;;;;;;;8.75;5.32;;;;;;;;;;5044215;28;20079;-77
2023/01/19 00:13:38;;;;;;;10.77;5.32;;;;;;;;;;5034031;28;20029;-77
2023/01/19 00:16:05;;;;;;;7.85;4.88;;;;;;;;;;5043544;28;20093;-77
2023/01/19 00:18:31;;;;;;;9.70;4.85;;;;;;;;;;5039351;28;20076;-76
2023/01/19 00:20:57;;;;;;;8.40;5.53;;;;;;;;;;5048639;28;20519;-77
2023/01/19 00:23:23;;;;;;;11.50;4.65;;;;;;;;;;5038016;28;20025;-77
2023/01/19 00:25:50;;;;;;;7.07;4.90;;;;;;;;;;5040017;28;20041;-77
2023/01/19 00:28:17;;;;;;;8.57;4.70;;;;;;;;;;5051582;28;20017;-77
2023/01/19 00:30:44;;;;;;;6.35;4.57;;;;;;;;;;5044498;28;20458;-77
2023/01/19 00:33:14;;;;;;;7.25;4.90;;;;;;;;;;5046586;28;20126;-77
2023/01/19 00:35:41;;;;;;;10.10;5.10;;;;;;;;;;5044501;28;20079;-77
2023/01/19 00:38:08;;;;;;;7.07;4.68;;;;;;;;;;5037800;28;20032;-78
2023/01/19 00:40:34;;;;;;;9.02;5.35;;;;;;;;;;5039497;28;20112;-77
2023/01/19 00:43:00;;;;;;;10.40;5.35;;;;;;;;;;5047188;28;20021;-77
2023/01/19 00:45:26;;;;;;;7.85;4.80;;;;;;;;;;5057546;28;20029;-77
2023/01/19 00:47:55;;;;;;;8.88;5.10;;;;;;;;;;5044975;28;20025;-77
2023/01/19 00:50:22;;;;;;;10.55;5.97;;;;;;;;;;5042123;28;20026;-77
2023/01/19 00:52:48;;;;;;;6.05;4.70;;;;;;;;;;5059975;28;20032;-77
2023/01/19 00:55:15;;;;;;;8.68;4.20;;;;;;;;;;5036794;28;20055;-78
2023/01/19 00:57:41;;;;;;;9.15;4.90;;;;;;;;;;5045629;28;20029;-77
2023/01/19 01:00:12;;;;;;;11.70;4.68;;;;;;;;;;5036014;28;20429;-77
2023/01/19 01:02:39;;;;;;;9.65;4.60;;;;;;;;;;5041689;28;20514;-77
2023/01/19 01:05:05;;;;;;;7.75;4.72;;;;;;;;;;5051660;28;20112;-77
2023/01/19 01:07:43;;;;;;;13.27;4.25;;;;;;;;;;5042100;28;20061;-77
2023/01/19 01:10:19;;;;;;;8.00;4.50;;;;;;;;;;5028888;28;20032;-77
2023/01/19 01:12:46;;;;;;;7.50;4.35;;;;;;;;;;5041921;28;20033;-77
2023/01/19 01:15:13;;;;;;;7.60;4.55;;;;;;;;;;5032639;28;20755;-76
2023/01/19 01:17:51;;;;;;;7.38;4.40;;;;;;;;;;5038773;28;20037;-77
2023/01/19 01:20:19;;;;;;;9.20;5.57;;;;;;;;;;5043358;28;20048;-77
2023/01/19 01:22:46;;;;;;;7.25;5.32;;;;;;;;;;5041331;28;20029;-77
2023/01/19 01:25:13;;;;;;;10.60;5.28;;;;;;;;;;5035689;28;20087;-77
2023/01/19 01:27:40;;;;;;;9.55;4.95;;;;;;;;;;5036964;28;20729;-77
2023/01/19 01:30:07;;;;;;;7.00;4.28;;;;;;;;;;5039645;28;20124;-77
2023/01/19 01:32:33;;;;;;;7.07;4.13;;;;;;;;;;5058033;28;20021;-76
2023/01/19 01:34:59;;;;;;;5.75;4.45;;;;;;;;;;5033764;28;20068;-77
2023/01/19 01:37:25;;;;;;;9.25;3.97;;;;;;;;;;5048064;28;20025;-77
2023/01/19 01:39:51;;;;;;;9.15;4.55;;;;;;;;;;5034377;28;20029;-77
2023/01/19 01:42:19;;;;;;;7.80;4.18;;;;;;;;;;5035620;28;20021;-77
2023/01/19 01:44:52;;;;;;;7.93;4.03;;;;;;;;;;5038586;28;20018;-77
2023/01/19 01:47:22;;;;;;;8.07;4.35;;;;;;;;;;5045007;28;20021;-77
2023/01/19 01:49:50;;;;;;;8.13;4.43;;;;;;;;;;5036771;28;20037;-77
2023/01/19 01:52:17;;;;;;;5.65;3.65;;;;;;;;;;5047187;28;20128;-77
2023/01/19 01:54:43;;;;;;;8.85;4.00;;;;;;;;;;5047145;28;20021;-77
2023/01/19 01:57:13;;;;;;;5.93;3.65;;;;;;;;;;5048434;28;20089;-77
2023/01/19 01:59:44;;;;;;;4.93;3.53;;;;;;;;;;5039335;28;20163;-77
2023/01/19 02:05:09;;;;;;;5.47;4.43;;;;;;;;;;5033270;28;20056;-78
2023/01/19 02:13:22;;;;;;;4.28;3.47;;;;;;;;;;5040384;28;20040;-77
2023/01/19 02:15:49;;;;;;;4.97;3.28;;;;;;;;;;5034908;28;20095;-77
2023/01/19 02:18:16;;;;;;;6.82;3.75;;;;;;;;;;5032471;28;20029;-77
2023/01/19 02:20:44;;;;;;;4.82;3.55;;;;;;;;;;5045641;28;20070;-77
2023/01/19 02:23:14;;;;;;;5.88;3.50;;;;;;;;;;5033849;28;20455;-77
2023/01/19 02:25:40;;;;;;;5.35;3.88;;;;;;;;;;5039296;28;20030;-77
2023/01/19 02:28:07;;;;;;;10.02;4.20;;;;;;;;;;5045621;28;20026;-77
2023/01/19 02:30:34;;;;;;;6.32;3.92;;;;;;;;;;5038217;28;20036;-77
2023/01/19 02:33:00;;;;;;;7.10;4.07;;;;;;;;;;5035240;28;20029;-76
2023/01/19 02:35:26;;;;;;;7.63;3.90;;;;;;;;;;5043725;28;20082;-77
2023/01/19 02:37:53;;;;;;;5.80;4.07;;;;;;;;;;5048623;28;20074;-76
2023/01/19 02:40:20;;;;;;;6.20;3.65;;;;;;;;;;5039350;28;20029;-77
2023/01/19 02:42:49;;;;;;;5.80;3.20;;;;;;;;;;5048700;28;20082;-77
2023/01/19 02:45:17;;;;;;;7.68;4.10;;;;;;;;;;5048423;28;20032;-76
2023/01/19 02:47:50;;;;;;;7.10;3.50;;;;;;;;;;5043956;28;20033;-77
2023/01/19 02:50:38;;;;;;;7.18;4.32;;;;;;;;;;5047745;28;20032;-77
2023/01/19 02:53:08;;;;;;;7.68;3.85;;;;;;;;;;5040519;28;20515;-77
2023/01/19 02:55:34;;;;;;;11.93;4.05;;;;;;;;;;5047376;28;20033;-77
2023/01/19 02:58:04;;;;;;;7.10;3.35;;;;;;;;;;5040688;28;20032;-77
2023/01/19 03:00:33;;;;;;;5.30;3.40;;;;;;;;;;5041714;28;20041;-77
2023/01/19 03:03:26;;;;;;;6.07;3.95;;;;;;;;;;5035465;28;20041;-77
2023/01/19 03:05:55;;;;;;;6.32;4.13;;;;;;;;;;5036190;28;20116;-77
2023/01/19 03:08:24;;;;;;;4.82;3.80;;;;;;;;;;5036298;28;20028;-77
2023/01/19 03:10:50;;;;;;;6.97;4.10;;;;;;;;;;5057587;28;20033;-77
2023/01/19 03:13:30;;;;;;;7.40;3.65;;;;;;;;;;5036360;28;20105;-77
2023/01/19 03:15:58;;;;;;;9.48;3.97;;;;;;;;;;5032464;28;20025;-77
2023/01/19 03:18:26;;;;;;;10.02;4.07;;;;;;;;;;5047311;28;20075;-77
2023/01/19 03:20:54;;;;;;;12.90;4.30;;;;;;;;;;5022498;28;20038;-77
2023/01/19 03:23:21;;;;;;;8.07;4.45;;;;;;;;;;5024821;28;20025;-77
2023/01/19 03:25:48;;;;;;;9.55;4.82;;;;;;;;;;5023286;28;20025;-77
2023/01/19 03:28:15;;;;;;;5.97;3.72;;;;;;;;;;5021882;28;20099;-77
2023/01/19 03:30:47;;;;;;;4.82;3.47;;;;;;;;;;5022275;28;20029;-77
2023/01/19 03:33:20;;;;;;;10.80;5.38;;;;;;;;;;5024332;28;20505;-77
2023/01/19 03:35:48;;;;;;;9.07;4.95;;;;;;;;;;5020682;28;20041;-77
2023/01/19 03:38:16;;;;;;;5.75;3.50;;;;;;;;;;5025024;28;20131;-77
2023/01/19 03:40:42;;;;;;;12.05;4.70;;;;;;;;;;5027100;28;20037;-77
2023/01/19 03:43:09;;;;;;;11.00;4.88;;;;;;;;;;5027546;28;20033;-77
2023/01/19 03:45:37;;;;;;;8.07;4.32;;;;;;;;;;5022635;28;20507;-77
2023/01/19 03:48:04;;;;;;;7.63;4.18;;;;;;;;;;5018057;28;20439;-77
2023/01/19 03:50:30;;;;;;;7.00;3.90;;;;;;;;;;5018533;28;20433;-77
2023/01/19 03:53:15;;;;;;;9.93;4.38;;;;;;;;;;5020619;28;20026;-77
2023/01/19 03:55:45;;;;;;;10.93;4.53;;;;;;;;;;5026355;28;20028;-77
2023/01/19 03:58:11;;;;;;;4.43;3.30;;;;;;;;;;5024377;28;20014;-76
2023/01/19 04:00:37;;;;;;;7.63;3.72;;;;;;;;;;5022046;28;20061;-77
2023/01/19 04:03:04;;;;;;;6.00;3.60;;;;;;;;;;5017642;28;20077;-77
2023/01/19 04:05:30;;;;;;;5.30;3.55;;;;;;;;;;5011627;28;20450;-77
2023/01/19 04:07:56;;;;;;;5.25;2.92;;;;;;;;;;5024788;28;20486;-77
2023/01/19 04:10:23;;;;;;;8.35;3.42;;;;;;;;;;5027987;28;20113;-77
2023/01/19 04:12:49;;;;;;;10.75;3.72;;;;;;;;;;5022041;28;20033;-77
2023/01/19 04:15:16;;;;;;;5.07;3.15;;;;;;;;;;5019200;28;20060;-77
2023/01/19 04:17:42;;;;;;;3.58;3.08;;;;;;;;;;5020824;28;20044;-77
2023/01/19 04:20:09;;;;;;;9.48;4.07;;;;;;;;;;5039214;28;20045;-76
2023/01/19 04:22:35;;;;;;;7.85;3.88;;;;;;;;;;5039060;28;20108;-77
2023/01/19 04:25:02;;;;;;;5.90;4.18;;;;;;;;;;5040900;28;20425;-77
2023/01/19 04:27:28;;;;;;;9.27;3.97;;;;;;;;;;5050064;28;20128;-77
2023/01/19 04:29:54;;;;;;;6.13;3.65;;;;;;;;;;5037538;28;20040;-77
2023/01/19 04:32:20;;;;;;;7.05;3.95;;;;;;;;;;5048164;28;20029;-77
2023/01/19 04:34:46;;;;;;;6.10;3.78;;;;;;;;;;5041842;28;20025;-77
2023/01/19 04:37:12;;;;;;;10.18;4.43;;;;;;;;;;5046035;28;20029;-77
2023/01/19 04:39:39;;;;;;;8.68;3.58;;;;;;;;;;5046467;28;20032;-77
2023/01/19 04:42:05;;;;;;;8.70;4.57;;;;;;;;;;5037562;28;20024;-77
2023/01/19 04:44:31;;;;;;;11.93;5.20;;;;;;;;;;5049555;28;20036;-77
2023/01/19 04:46:57;;;;;;;6.80;4.18;;;;;;;;;;5039476;28;20113;-77
2023/01/19 04:49:23;;;;;;;8.68;4.25;;;;;;;;;;5043888;28;20043;-77
2023/01/19 04:51:52;;;;;;;6.57;3.70;;;;;;;;;;5048265;28;20139;-77
2023/01/19 04:54:18;;;;;;;6.07;4.80;;;;;;;;;;5037535;28;20104;-78
2023/01/19 04:56:45;;;;;;;19.92;5.90;;;;;;;;;;5043425;28;20029;-77
2023/01/19 04:59:11;;;;;;;9.77;4.70;;;;;;;;;;5038965;28;20071;-77
2023/01/19 05:01:37;;;;;;;7.68;4.63;;;;;;;;;;5039161;28;20017;-77
2023/01/19 05:04:05;;;;;;;9.10;4.22;;;;;;;;;;5043756;28;20517;-77
2023/01/19 05:06:32;;;;;;;8.50;5.28;;;;;;;;;;5044344;28;20017;-77
2023/01/19 05:08:58;;;;;;;8.55;3.88;;;;;;;;;;5044924;28;20048;-77
2023/01/19 05:11:24;;;;;;;4.60;3.30;;;;;;;;;;5046397;28;20029;-76
2023/01/19 05:13:50;;;;;;;6.07;3.70;;;;;;;;;;5038825;28;20417;-77
2023/01/19 05:16:16;;;;;;;5.85;3.97;;;;;;;;;;5048353;28;20026;-77
2023/01/19 05:18:43;;;;;;;9.45;4.05;;;;;;;;;;5040919;28;20036;-77
2023/01/19 05:21:09;;;;;;;7.55;3.80;;;;;;;;;;5042217;28;20786;-77
2023/01/19 05:23:35;;;;;;;6.55;3.40;;;;;;;;;;5047407;28;20059;-77
2023/01/19 05:26:01;;;;;;;6.75;4.00;;;;;;;;;;5039812;28;20021;-77
2023/01/19 05:28:28;;;;;;;9.13;3.42;;;;;;;;;;5048294;28;20049;-77
2023/01/19 05:30:54;;;;;;;4.85;2.90;;;;;;;;;;5041919;28;20106;-77
2023/01/19 05:33:20;;;;;;;4.43;3.15;;;;;;;;;;5032961;28;20053;-77
2023/01/19 05:35:49;;;;;;;5.97;3.00;;;;;;;;;;5043194;28;20444;-77
2023/01/19 05:38:15;;;;;;;9.00;3.55;;;;;;;;;;5039174;28;20026;-77
2023/01/19 05:40:41;;;;;;;5.88;3.72;;;;;;;;;;5042300;28;20058;-76
2023/01/19 05:43:07;;;;;;;5.13;3.60;;;;;;;;;;5041094;28;20033;-77
2023/01/19 05:45:34;;;;;;;10.18;3.75;;;;;;;;;;5042282;28;20122;-77
2023/01/19 05:48:00;;;;;;;4.80;2.75;;;;;;;;;;5036308;28;20056;-75
2023/01/19 05:50:26;;;;;;;5.22;3.20;;;;;;;;;;5043589;28;20105;-77
2023/01/19 05:52:52;;;;;;;5.18;3.67;;;;;;;;;;5038763;28;20043;-77
2023/01/19 05:55:19;;;;;;;5.10;3.38;;;;;;;;;;5037872;28;20021;-77
2023/01/19 05:57:45;;;;;;;5.07;3.08;;;;;;;;;;5046056;28;20030;-76
2023/01/19 06:00:11;;;;;;;4.68;3.25;;;;;;;;;;5033555;28;20424;-77
2023/01/19 06:02:38;;;;;;;5.03;3.28;;;;;;;;;;5043763;28;20106;-76
2023/01/19 06:05:05;;;;;;;6.25;4.40;;;;;;;;;;5048270;28;20021;-75
2023/01/19 06:07:31;;;;;;;4.35;2.90;;;;;;;;;;5040727;28;20017;-77
2023/01/19 06:09:58;;;;;;;4.97;3.08;;;;;;;;;;5045770;28;20489;-77
2023/01/19 06:12:24;;;;;;;5.97;3.78;;;;;;;;;;5044109;28;20061;-76
2023/01/19 06:14:50;;;;;;;5.47;3.80;;;;;;;;;;5041413;28;20032;-77
2023/01/19 06:17:17;;;;;;;5.18;4.18;;;;;;;;;;5038064;28;20039;-77
2023/01/19 06:19:43;;;;;;;4.60;3.30;;;;;;;;;;5050023;28;20045;-77
2023/01/19 06:22:10;;;;;;;5.50;2.95;;;;;;;;;;5044801;28;20072;-77
2023/01/19 06:24:36;;;;;;;4.70;2.88;;;;;;;;;;5035750;28;20132;-77
2023/01/19 06:27:02;;;;;;;5.47;3.38;;;;;;;;;;5039110;28;20017;-77
2023/01/19 06:29:28;;;;;;;8.35;3.42;;;;;;;;;;5048322;28;20032;-77
2023/01/19 06:31:55;;;;;;;6.88;3.05;;;;;;;;;;5050355;28;20127;-77
2023/01/19 06:34:21;;;;;;;6.38;2.90;;;;;;;;;;5042410;28;20029;-77
2023/01/19 06:36:47;;;;;;;4.30;2.95;;;;;;;;;;5041125;28;20021;-77
2023/01/19 06:39:13;;;;;;;4.32;2.97;;;;;;;;;;5045277;28;20025;-76
2023/01/19 06:41:39;;;;;;;5.38;3.05;;;;;;;;;;5049325;28;20029;-77
2023/01/19 06:44:06;;;;;;;4.43;3.05;;;;;;;;;;5048927;28;20036;-77
2023/01/19 06:46:34;;;;;;;6.80;3.38;;;;;;;;;;5035954;28;20022;-77
2023/01/19 06:49:00;;;;;;;4.13;2.78;;;;;;;;;;5040152;28;20028;-76
2023/01/19 06:51:26;;;;;;;6.50;3.35;;;;;;;;;;5038176;28;20501;-77
2023/01/19 06:53:52;;;;;;;3.83;2.85;;;;;;;;;;5045860;28;20029;-78
2023/01/19 06:56:19;;;;;;;5.40;3.80;;;;;;;;;;5033932;28;20250;-77
2023/01/19 06:58:46;;;;;;;4.93;2.83;;;;;;;;;;5047331;28;20028;-78
2023/01/19 07:01:12;;;;;;;4.65;3.08;;;;;;;;;;5036170;28;20021;-77
2023/01/19 07:03:38;;;;;;;4.32;3.03;;;;;;;;;;5045251;28;20478;-77
2023/01/19 07:06:08;;;;;;;4.53;3.00;;;;;;;;;;5038901;28;20107;-77
2023/01/19 07:08:35;;;;;;;6.40;3.47;;;;;;;;;;5033840;28;20017;-76
2023/01/19 07:11:04;;;;;;;4.10;3.22;;;;;;;;;;5042298;28;20029;-77
2023/01/19 07:13:31;;;;;;;4.88;3.28;;;;;;;;;;5041582;28;20025;-77
2023/01/19 07:15:57;;;;;;;5.68;3.10;;;;;;;;;;5035587;28;20043;-77
2023/01/19 07:18:23;;;;;;;6.45;3.42;;;;;;;;;;5044982;28;20161;-77
2023/01/19 07:20:49;;;;;;;4.43;2.95;;;;;;;;;;5034542;28;20045;-77
2023/01/19 07:23:15;;;;;;;6.35;3.10;;;;;;;;;;5038593;28;20132;-77
2023/01/19 07:25:45;;;;;;;8.25;3.65;;;;;;;;;;5041922;28;20041;-77
2023/01/19 07:28:14;;;;;;;8.73;3.83;;;;;;;;;;5041693;28;20031;-76
2023/01/19 07:30:41;;;;;;;4.38;3.22;;;;;;;;;;5042813;28;20994;-79
2023/01/19 07:33:07;;;;;;;5.53;2.92;;;;;;;;;;5041084;28;20067;-76
2023/01/19 07:35:33;;;;;;;8.60;3.20;;;;;;;;;;5037582;28;20377;-77
2023/01/19 07:37:59;;;;;;;6.13;3.30;;;;;;;;;;5045138;28;20033;-76
2023/01/19 07:40:28;;;;;;;5.75;3.30;;;;;;;;;;5042864;28;20078;-75
2023/01/19 07:42:54;;;;;;;8.23;3.85;;;;;;;;;;5042973;28;20036;-77
2023/01/19 07:45:20;;;;;;;5.07;3.03;;;;;;;;;;5043208;28;20029;-77
2023/01/19 07:47:50;;;;;;;8.43;3.45;;;;;;;;;;5048099;28;20021;-76
2023/01/19 07:50:20;;;;;;;8.18;4.50;;;;;;;;;;5044290;28;20020;-77
2023/01/19 07:52:49;;;;;;;10.25;4.65;;;;;;;;;;5044230;28;20031;-77
2023/01/19 07:55:15;;;;;;;7.28;3.63;;;;;;;;;;5044378;28;20032;-77
2023/01/19 07:57:41;;;;;;;8.65;4.47;;;;;;;;;;5040410;28;20052;-78
2023/01/19 08:00:08;;;;;;;11.13;4.18;;;;;;;;;;5045594;28;20053;-77
2023/01/19 08:02:34;;;;;;;7.53;3.90;;;;;;;;;;5045167;28;20033;-76
2023/01/19 08:05:01;;;;;;;7.50;3.90;;;;;;;;;;5041720;28;20021;-77
2023/01/19 08:07:27;;;;;;;7.63;3.80;;;;;;;;;;5043022;28;20100;-77
2023/01/19 08:09:53;;;;;;;7.15;3.97;;;;;;;;;;5042308;28;20119;-77
2023/01/19 08:12:19;;;;;;;10.27;4.75;;;;;;;;;;5044474;28;20038;-77
2023/01/19 08:14:45;;;;;;;15.45;7.85;;;;;;;;;;5047907;28;20432;-77
2023/01/19 08:17:12;;;;;;;7.93;4.57;;;;;;;;;;5046757;28;20040;-78
2023/01/19 08:19:40;;;;;;;8.02;5.63;;;;;;;;;;5045488;28;20045;-77
2023/01/19 08:22:06;;;;;;;11.40;5.53;;;;;;;;;;5043709;28;20112;-77
2023/01/19 08:24:32;;;;;;;16.55;6.05;;;;;;;;;;5042790;28;20787;-77
2023/01/19 08:26:59;;;;;;;13.63;6.45;;;;;;;;;;5043537;28;20028;-76
2023/01/19 08:29:25;;;;;;;17.10;6.30;;;;;;;;;;5044381;28;20097;-77
2023/01/19 08:31:54;;;;;;;10.50;7.40;;;;;;;;;;5045560;28;20021;-77
2023/01/19 08:34:20;;;;;;;8.93;5.25;;;;;;;;;;5043783;28;20512;-77
2023/01/19 08:36:46;;;;;;;9.00;4.45;;;;;;;;;;5046816;28;20824;-78
2023/01/19 08:39:12;;;;;;;8.63;4.40;;;;;;;;;;5046780;28;20029;-76
2023/01/19 08:41:38;;;;;;;6.70;3.63;;;;;;;;;;5045288;28;20025;-76
2023/01/19 08:44:04;;;;;;;8.45;3.78;;;;;;;;;;5040593;28;20433;-77
2023/01/19 08:46:31;;;;;;;10.50;4.25;;;;;;;;;;5045055;28;20045;-76
2023/01/19 08:48:57;;;;;;;11.52;4.80;;;;;;;;;;5044864;28;20021;-78
2023/01/19 08:51:23;;;;;;;12.98;5.53;;;;;;;;;;5040535;28;20648;-78
2023/01/19 08:53:49;;;;;;;7.28;3.90;;;;;;;;;;5041600;28;20021;-79
2023/01/19 08:56:15;;;;;;;7.40;4.00;;;;;;;;;;5043634;28;20593;-77
2023/01/19 08:58:42;;;;;;;4.80;3.42;;;;;;;;;;5045036;28;20063;-77
2023/01/19 09:01:08;;;;;;;6.78;4.53;;;;;;;;;;5041208;28;20450;-77
2023/01/19 09:03:37;;;;;;;6.47;3.58;;;;;;;;;;5044116;28;20545;-77
2023/01/19 09:06:07;;;;;;;7.13;4.28;;;;;;;;;;5040558;28;20024;-77
2023/01/19 09:08:33;;;;;;;8.18;4.28;;;;;;;;;;5042437;28;20029;-77
2023/01/19 09:10:59;;;;;;;9.00;4.45;;;;;;;;;;5043032;28;20037;-77
2023/01/19 09:13:26;;;;;;;6.88;4.13;;;;;;;;;;5041355;28;20032;-77
2023/01/19 09:15:52;;;;;;;6.13;4.10;;;;;;;;;;5042487;28;20040;-77
2023/01/19 09:18:19;;;;;;;7.25;4.68;;;;;;;;;;5040049;28;20810;-77
2023/01/19 09:20:46;;;;;;;9.77;5.05;;;;;;;;;;5041009;28;20142;-77
2023/01/19 09:23:14;;;;;;;8.63;4.28;;;;;;;;;;5039567;28;20071;-77
2023/01/19 09:25:41;;;;;;;6.20;4.00;;;;;;;;;;5041844;28;20116;-77
2023/01/19 09:28:08;;;;;;;9.73;4.47;;;;;;;;;;5041765;28;20077;-76
2023/01/19 09:30:36;;;;;;;6.15;3.97;;;;;;;;;;5040174;28;20024;-77
2023/01/19 09:33:06;;;;;;;7.60;4.13;;;;;;;;;;5041642;28;20406;-77
2023/01/19 09:35:33;;;;;;;6.00;4.18;;;;;;;;;;5040550;28;20029;-78
2023/01/19 09:37:59;;;;;;;7.88;3.78;;;;;;;;;;5035525;28;20500;-77
2023/01/19 09:40:25;;;;;;;5.82;3.90;;;;;;;;;;5037222;28;20123;-77
2023/01/19 09:42:58;;;;;;;7.32;4.32;;;;;;;;;;5039973;28;20032;-77
2023/01/19 09:45:35;;;;;;;8.75;4.65;;;;;;;;;;5042504;28;20112;-77
2023/01/19 09:48:01;;;;;;;6.03;3.80;;;;;;;;;;5041407;28;20021;-77
2023/01/19 09:50:31;;;;;;;11.00;4.10;;;;;;;;;;5041496;28;20033;-77
2023/01/19 09:53:01;;;;;;;7.75;4.95;;;;;;;;;;5039675;28;20029;-77
2023/01/19 09:55:27;;;;;;;6.88;5.30;;;;;;;;;;5037672;28;20515;-77
2023/01/19 09:57:54;;;;;;;8.98;4.90;;;;;;;;;;5038414;28;20476;-77
2023/01/19 10:00:22;;;;;;;8.65;5.35;;;;;;;;;;5042724;28;20033;-77
2023/01/19 10:02:51;;;;;;;7.85;4.75;;;;;;;;;;5038889;28;20067;-77
2023/01/19 10:05:30;;;;;;;12.10;6.63;;;;;;;;;;5037839;28;20025;-77
2023/01/19 10:07:56;;;;;;;6.45;4.57;;;;;;;;;;5038814;28;20029;-77
2023/01/19 10:10:25;;;;;;;8.93;4.53;;;;;;;;;;5038308;28;20021;-77
2023/01/19 10:13:15;;;;;;;7.43;4.10;;;;;;;;;;5037149;28;20078;-77
2023/01/19 10:15:46;;;;;;;7.35;4.22;;;;;;;;;;5037852;28;20079;-77
2023/01/19 10:18:16;;;;;;;8.05;4.70;;;;;;;;;;5038475;28;20132;-76
2023/01/19 10:21:02;;;;;;;11.80;5.57;;;;;;;;;;5038888;28;20052;-77
2023/01/19 10:23:36;;;;;;;12.40;6.05;;;;;;;;;;5032354;28;20055;-77
2023/01/19 10:26:06;;;;;;;12.02;6.88;;;;;;;;;;5039686;28;20039;-76
2023/01/19 10:28:33;;;;;;;9.95;6.05;;;;;;;;;;5040981;28;20036;-76
2023/01/19 10:30:59;;;;;;;15.65;6.28;;;;;;;;;;5036126;28;20029;-77
2023/01/19 10:33:26;;;;;;;10.13;5.50;;;;;;;;;;5039304;28;20031;-77
2023/01/19 10:35:52;;;;;;;9.90;6.03;;;;;;;;;;5040193;28;20537;-76
2023/01/19 10:38:20;;;;;;;8.98;5.07;;;;;;;;;;5042666;28;20036;-76
2023/01/19 10:40:47;;;;;;;14.43;5.88;;;;;;;;;;5044199;28;20049;-77
2023/01/19 10:43:31;;;;;;;11.40;5.80;;;;;;;;;;5037771;28;20103;-75
2023/01/19 10:45:57;;;;;;;9.98;5.20;;;;;;;;;;5036781;28;20123;-75
2023/01/19 10:48:23;;;;;;;10.50;5.07;;;;;;;;;;5039238;28;20024;-77
2023/01/19 10:51:01;;;;;;;10.75;5.82;;;;;;;;;;5038145;28;20033;-74
2023/01/19 10:53:27;;;;;;;9.52;6.10;;;;;;;;;;5033984;28;20449;-75
2023/01/19 10:56:13;;;;;;;8.60;5.10;;;;;;;;;;5037632;28;20036;-75
2023/01/19 10:58:40;;;;;;;8.82;5.13;;;;;;;;;;5036185;28;20039;-77
2023/01/19 11:01:23;;;;;;;7.20;5.05;;;;;;;;;;5040865;28;20377;-75
2023/01/19 11:03:49;;;;;;;8.50;5.40;;;;;;;;;;5042573;28;20167;-75
2023/01/19 11:06:15;;;;;;;9.18;5.28;;;;;;;;;;5039781;28;20029;-75
2023/01/19 11:08:42;;;;;;;9.07;5.53;;;;;;;;;;5041272;28;20068;-76
2023/01/19 11:11:10;;;;;;;10.15;4.55;;;;;;;;;;5039661;28;20056;-76
2023/01/19 11:13:37;;;;;;;8.30;4.72;;;;;;;;;;5041050;28;21840;-75
2023/01/19 11:16:13;;;;;;;11.35;5.47;;;;;;;;;;5036786;28;21207;-76
2023/01/19 11:18:40;;;;;;;10.23;5.50;;;;;;;;;;5041752;28;20120;-76
2023/01/19 11:21:08;;;;;;;8.93;5.32;;;;;;;;;;5036718;28;20420;-76
2023/01/19 11:23:41;;;;;;;7.32;5.35;;;;;;;;;;5040837;28;20013;-75
2023/01/19 11:26:09;;;;;;;8.50;5.50;;;;;;;;;;5040520;28;20045;-76
2023/01/19 11:28:37;;;;;;;8.70;4.82;;;;;;;;;;5042095;28;20071;-75
2023/01/19 11:31:16;;;;;;;6.57;4.45;;;;;;;;;;5043614;28;20091;-75
2023/01/19 11:33:45;;;;;;;9.00;4.72;;;;;;;;;;5039030;28;20060;-75
2023/01/19 11:36:19;;;;;;;7.30;4.47;;;;;;;;;;5038772;28;20109;-76
2023/01/19 11:38:49;;;;;;;7.70;4.65;;;;;;;;;;5043424;28;20021;-74
2023/01/19 11:41:37;;;;;;;6.63;4.90;;;;;;;;;;5040545;28;20035;-76
2023/01/19 11:44:18;;;;;;;6.82;4.45;;;;;;;;;;5037940;28;20021;-76
2023/01/19 11:46:46;;;;;;;8.52;3.85;;;;;;;;;;5039246;28;20136;-76
2023/01/19 11:49:19;;;;;;;6.25;4.32;;;;;;;;;;5037786;28;20108;-76
2023/01/19 11:51:51;;;;;;;6.90;4.47;;;;;;;;;;5041405;28;20483;-76
2023/01/19 11:54:20;;;;;;;8.00;4.20;;;;;;;;;;5040484;28;20029;-75
2023/01/19 11:56:47;;;;;;;6.13;4.28;;;;;;;;;;5040471;28;20033;-76
2023/01/19 11:59:14;;;;;;;8.88;4.82;;;;;;;;;;5040356;28;20056;-76
2023/01/19 12:01:45;;;;;;;6.50;4.05;;;;;;;;;;5041782;28;20025;-76
2023/01/19 12:04:12;;;;;;;5.65;4.43;;;;;;;;;;5039435;28;20079;-77
2023/01/19 12:06:43;;;;;;;8.05;3.95;;;;;;;;;;5043747;28;20481;-76
2023/01/19 12:09:09;;;;;;;9.48;3.92;;;;;;;;;;5038021;28;20142;-77
2023/01/19 12:11:36;;;;;;;7.28;4.00;;;;;;;;;;5038510;28;20649;-77
2023/01/19 12:14:04;;;;;;;5.95;3.45;;;;;;;;;;5042983;28;20035;-77
2023/01/19 12:16:32;;;;;;;7.25;3.65;;;;;;;;;;5035449;28;20462;-76
2023/01/19 12:19:00;;;;;;;8.93;3.50;;;;;;;;;;5041415;28;20121;-81
2023/01/19 12:21:27;;;;;;;7.82;4.15;;;;;;;;;;5038922;28;20021;-77
2023/01/19 12:23:56;;;;;;;5.88;4.07;;;;;;;;;;5041779;28;20036;-76
2023/01/19 12:26:27;;;;;;;6.85;3.88;;;;;;;;;;5039820;28;20021;-76
2023/01/19 12:28:56;;;;;;;8.07;4.60;;;;;;;;;;5040678;28;20029;-78
2023/01/19 12:31:23;;;;;;;7.78;4.78;;;;;;;;;;5041221;28;20067;-75
2023/01/19 12:33:49;;;;;;;5.25;4.00;;;;;;;;;;5038227;28;21449;-75
2023/01/19 12:36:37;;;;;;;9.05;4.53;;;;;;;;;;5039553;28;20032;-74
2023/01/19 12:39:06;;;;;;;6.95;4.18;;;;;;;;;;5040161;28;20397;-76
2023/01/19 12:41:36;;;;;;;6.85;4.60;;;;;;;;;;5038219;28;20082;-78
2023/01/19 12:44:15;;;;;;;7.88;4.18;;;;;;;;;;5040040;28;20025;-80
2023/01/19 12:46:53;;;;;;;8.50;5.18;;;;;;;;;;5039220;28;20035;-82
2023/01/19 12:49:31;;;;;;;6.10;3.70;;;;;;;;;;5036343;28;20035;-75
2023/01/19 12:52:17;;;;;;;4.15;3.65;;;;;;;;;;5037689;28;20815;-77
2023/01/19 12:54:49;;;;;;;7.43;3.90;;;;;;;;;;5039983;28;20055;-74
2023/01/19 12:57:35;;;;;;;6.40;3.55;;;;;;;;;;5035039;28;20049;-75
2023/01/19 13:00:04;;;;;;;5.82;3.63;;;;;;;;;;5038361;28;20485;-76
2023/01/19 13:02:41;;;;;;;5.75;3.88;;;;;;;;;;5039051;28;20717;-78
2023/01/19 13:05:12;;;;;;;6.28;3.90;;;;;;;;;;5035525;28;20032;-75
2023/01/19 13:07:57;;;;;;;7.57;4.63;;;;;;;;;;5037976;28;20035;-75
2023/01/19 13:10:41;;;;;;;6.53;3.73;;;;;;;;;;5036611;28;20032;-75
2023/01/19 13:13:16;;;;;;;4.82;3.10;;;;;;;;;;5039319;28;20284;-74
2023/01/19 13:15:43;;;;;;;5.67;3.30;;;;;;;;;;5035900;28;20035;-75
2023/01/19 13:18:10;;;;;;;5.65;2.67;;;;;;;;;;5039566;28;20394;-75
2023/01/19 13:20:52;;;;;;;4.18;2.70;;;;;;;;;;5035918;28;20393;-75
2023/01/19 13:23:25;;;;;;;4.80;3.45;;;;;;;;;;5040096;28;20183;-75
2023/01/19 13:25:53;;;;;;;5.00;2.75;;;;;;;;;;5037701;28;20032;-74
2023/01/19 13:28:23;;;;;;;4.15;2.92;;;;;;;;;;5037886;28;20021;-75
2023/01/19 13:30:53;;;;;;;3.30;2.70;;;;;;;;;;5036761;28;20512;-77
2023/01/19 13:33:21;;;;;;;3.50;2.53;;;;;;;;;;5036010;28;20277;-74
2023/01/19 13:35:55;;;;;;;3.03;2.25;;;;;;;;;;5041166;28;20111;-75
2023/01/19 13:38:21;;;;;;;4.00;2.40;;;;;;;;;;5033638;28;20029;-77
2023/01/19 13:40:48;;;;;;;3.20;2.45;;;;;;;;;;5037054;28;22150;-75
2023/01/19 13:43:19;;;;;;;4.07;3.67;;;;;;;;;;5036854;28;20029;-75
2023/01/19 13:45:47;;;;;;;6.18;5.57;;;;;;;;;;5040269;28;20382;-75
2023/01/19 13:48:15;;;;;;;9.90;9.20;;;;;;;;;;5037718;28;20044;-75
2023/01/19 13:50:44;;;;;;;6.35;3.92;;;;;;;;;;5040341;28;20104;-75
2023/01/19 13:53:17;;;;;;;8.35;7.65;;;;;;;;;;5032112;28;20053;-75
2023/01/19 13:55:44;;;;;;;6.95;4.20;;;;;;;;;;5040780;28;20023;-75
2023/01/19 13:58:19;;;;;;;6.63;6.03;;;;;;;;;;5039355;28;20030;-75
2023/01/19 14:00:46;;;;;;;4.88;3.83;;;;;;;;;;5038527;28;20037;-75
2023/01/19 14:03:16;;;;;;;4.05;3.65;;;;;;;;;;5037381;28;20026;-75
2023/01/19 14:05:43;;;;;;;5.43;3.55;;;;;;;;;;5039235;28;20040;-75
2023/01/19 14:08:12;;;;;;;4.47;2.60;;;;;;;;;;5033073;28;20056;-76
2023/01/19 14:11:00;;;;;;;5.07;3.30;;;;;;;;;;5036908;28;20119;-76
2023/01/19 14:13:30;;;;;;;5.38;3.53;;;;;;;;;;5036022;28;20084;-76
2023/01/19 14:15:58;;;;;;;5.45;4.57;;;;;;;;;;5034563;28;20346;-76
2023/01/19 14:18:34;;;;;;;5.90;4.15;;;;;;;;;;5034894;28;20026;-75
2023/01/19 14:21:00;;;;;;;7.00;4.28;;;;;;;;;;5038494;28;20544;-76
2023/01/19 14:23:38;;;;;;;7.28;5.10;;;;;;;;;;5039270;28;20489;-75
2023/01/19 14:26:04;;;;;;;3.85;3.50;;;;;;;;;;5037889;28;20025;-75
2023/01/19 14:28:39;;;;;;;7.90;4.90;;;;;;;;;;5036496;28;20115;-75
2023/01/19 14:31:05;;;;;;;;;;;;;;;;;;5040494;28;20040;-79
2023/01/19 14:33:34;;;;;;;4.97;3.83;;;;;;;;;;5033973;28;19913;-75
2023/01/19 14:36:16;;;;;;;4.43;3.45;;;;;;;;;;5037420;28;20059;-74
2023/01/19 14:38:45;;;;;;;4.03;2.70;;;;;;;;;;5034997;28;20025;-75
2023/01/19 14:41:12;;;;;;;4.32;3.20;;;;;;;;;;5036912;28;20056;-76
2023/01/19 14:43:43;;;;;;;6.32;3.80;;;;;;;;;;5036518;28;20397;-75
2023/01/19 14:46:14;;;;;;;3.38;3.03;;;;;;;;;;5037824;28;20094;-76
2023/01/19 14:48:45;;;;;;;7.10;4.13;;;;;;;;;;5035521;28;20466;-75
2023/01/19 14:51:14;;;;;;;14.70;6.28;;;;;;;;;;5034770;28;20025;-75
2023/01/19 14:53:46;;;;;;;4.60;3.40;;;;;;;;;;5038241;28;20060;-76
2023/01/19 14:56:12;;;;;;;7.28;4.88;;;;;;;;;;5035907;28;20079;-78
2023/01/19 14:58:38;;;;;;;4.97;3.78;;;;;;;;;;5036285;28;20496;-78